createdAt,value
2023-03-06T00:02:46.104Z,11.93
2023-03-06T00:12:51.722Z,10.70
2023-03-06T00:22:57.270Z,8.07
2023-03-06T00:33:00.777Z,9.17
2023-03-06T00:43:08.002Z,9.53
2023-03-06T00:53:13.671Z,9.73
2023-03-06T01:03:18.659Z,10.47
2023-03-06T01:13:21.738Z,11.40
2023-03-06T01:23:29.236Z,10.10
2023-03-06T01:33:35.619Z,10.00
2023-03-06T01:43:44.119Z,8.57
2023-03-06T01:53:48.644Z,9.43
2023-03-06T02:03:55.863Z,9.30
2023-03-06T02:13:58.859Z,10.57
2023-03-06T02:24:15.123Z,10.47
2023-03-06T02:45:27.053Z,9.47
2023-03-06T02:55:32.262Z,10.20
2023-03-06T03:05:36.380Z,9.87
2023-03-06T03:16:00.807Z,10.80
2023-03-06T03:26:09.162Z,10.60
2023-03-06T03:36:16.035Z,10.68
2023-03-06T03:46:22.398Z,10.53
2023-03-06T03:56:54.782Z,11.67
2023-03-06T04:07:04.401Z,10.83
2023-03-06T04:27:38.740Z,11.83
2023-03-06T04:37:45.464Z,13.23
2023-03-06T04:47:50.989Z,15.43
2023-03-06T04:57:55.483Z,15.33
2023-03-06T05:07:59.246Z,14.73
2023-03-06T05:18:04.842Z,14.40
2023-03-06T05:28:08.318Z,15.00
2023-03-06T05:38:14.389Z,15.40
2023-03-06T05:48:17.653Z,14.57
2023-03-06T05:58:22.217Z,17.47
2023-03-06T06:08:24.951Z,15.13
2023-03-06T06:18:29.256Z,17.23
2023-03-06T06:28:34.607Z,17.93
2023-03-06T06:38:39.004Z,16.90
2023-03-06T06:48:41.953Z,17.23
2023-03-06T06:58:46.344Z,18.80
2023-03-06T07:08:49.078Z,18.23
2023-03-06T07:18:53.823Z,20.93
2023-03-06T07:28:56.935Z,22.17
2023-03-06T07:39:01.725Z,21.93
2023-03-06T07:49:04.455Z,29.77
2023-03-06T07:59:09.256Z,23.30
2023-03-06T08:09:12.286Z,22.10
2023-03-06T08:19:17.022Z,22.43
2023-03-06T08:29:19.990Z,22.80
2023-03-06T08:39:25.339Z,24.33
2023-03-06T08:49:28.361Z,23.33
2023-03-06T08:59:33.008Z,23.13
2023-03-06T09:09:36.831Z,26.43
2023-03-06T09:19:41.536Z,32.50
2023-03-06T09:29:44.887Z,24.23
2023-03-06T09:39:50.567Z,24.50
2023-03-06T09:50:23.848Z,21.90
2023-03-06T10:00:34.713Z,21.43
2023-03-06T10:10:45.780Z,19.37
2023-03-06T10:21:13.423Z,16.70
2023-03-06T10:31:26.319Z,17.20
2023-03-06T10:41:36.057Z,16.17
2023-03-06T10:51:39.976Z,17.50
2023-03-06T11:01:46.647Z,15.17
2023-03-06T11:11:50.420Z,14.97
2023-03-06T11:22:06.949Z,12.63
2023-03-06T11:32:18.036Z,12.93
2023-03-06T11:42:28.160Z,12.83
2023-03-06T11:52:43.148Z,13.87
2023-03-06T12:03:17.357Z,10.17
2023-03-06T12:13:46.504Z,10.00
2023-03-06T12:24:23.056Z,8.83
2023-03-06T12:34:36.506Z,10.27
2023-03-06T12:44:56.994Z,9.13
2023-03-06T12:55:03.122Z,10.20
2023-03-06T13:05:30.993Z,10.40
2023-03-06T13:15:39.457Z,10.03
2023-03-06T13:25:52.890Z,10.93
2023-03-06T13:35:57.299Z,12.30
2023-03-06T13:46:24.794Z,11.80
2023-03-06T13:57:03.083Z,12.17
2023-03-06T14:07:21.595Z,11.33
2023-03-06T14:17:31.228Z,11.63
2023-03-06T14:27:48.262Z,11.57
2023-03-06T14:37:57.892Z,10.80
2023-03-06T14:48:02.517Z,10.93
2023-03-06T14:58:13.016Z,13.63
2023-03-06T15:08:23.067Z,17.20
2023-03-06T15:18:30.042Z,15.83
2023-03-06T15:28:37.319Z,12.57
2023-03-06T15:38:44.052Z,12.70
2023-03-06T15:48:56.076Z,13.07
2023-03-06T15:58:59.600Z,17.97
2023-03-06T16:09:03.981Z,12.37
2023-03-06T16:19:25.379Z,12.47
2023-03-06T16:29:32.545Z,11.83
2023-03-06T16:39:36.285Z,12.20
2023-03-06T16:49:43.267Z,11.57
2023-03-06T16:59:46.446Z,12.23
2023-03-06T17:09:51.164Z,12.77
2023-03-06T17:19:54.704Z,11.50
2023-03-06T17:29:59.337Z,11.67
2023-03-06T17:40:02.668Z,11.33
2023-03-06T17:50:07.550Z,11.33
2023-03-06T18:00:13.231Z,12.30
2023-03-06T18:10:22.481Z,14.27
2023-03-06T18:20:25.680Z,13.67
2023-03-06T18:30:30.492Z,12.53
2023-03-06T18:40:33.743Z,12.27
2023-03-06T18:50:39.710Z,13.87
2023-03-06T19:00:43.360Z,11.57
2023-03-06T19:10:49.077Z,11.40
2023-03-06T19:20:53.121Z,9.10
2023-03-06T19:30:57.809Z,9.77
2023-03-06T19:41:01.398Z,12.10
2023-03-06T19:51:08.035Z,11.53
2023-03-06T20:01:13.184Z,10.10
2023-03-06T20:11:22.225Z,10.73
2023-03-06T20:21:31.387Z,10.73
2023-03-06T20:31:36.005Z,12.20
2023-03-06T20:41:40.387Z,11.33
2023-03-06T20:51:47.255Z,11.53
2023-03-06T21:01:50.702Z,10.87
2023-03-06T21:11:57.918Z,12.90
2023-03-06T21:22:01.121Z,12.97
2023-03-06T21:32:06.116Z,14.30
2023-03-06T21:53:38.083Z,15.07
2023-03-06T22:03:41.199Z,14.50
2023-03-06T22:13:47.162Z,14.40
2023-03-06T22:23:51.679Z,13.53
2023-03-06T22:33:58.674Z,13.37
2023-03-06T22:54:39.443Z,14.67
2023-03-06T23:04:42.716Z,12.23
2023-03-06T23:14:49.863Z,10.83
2023-03-06T23:25:12.013Z,10.43
2023-03-06T23:35:17.381Z,9.00
2023-03-06T23:45:21.291Z,9.90
2023-03-06T23:55:25.750Z,9.57
